Melbourne International Airport
YMML : now visible

Airfield :











YOU CAN JOIN US ON...

 
LOGIN :

Register | Disclaimer

   EN    FR    IT 

 









Legend :    VFR   Marginal VFR   IFR   Intensive IFR   Very Intensive IFR
Visi :
Ceiling :
>= 8 km
>= 3000ft
5 to 8 km
1000 to 3000 ft
1500m to 5 km
500 to 1000 ft
800 to 1500m
200 to 500 ft
< 800m
< 200 ft
Symbols :   Thunderstorms  Fog  Heavy snow  Heavy precipitations  Wind > 20 kt






- Airport Elevation : 434 ft
- IATA code : MEL


YMML - Melbourne International

CURRENT METAR :
  • 210400Z 25008KT CAVOK 15/M01 Q1015

EXPIRED METARs :
  • 210330Z 27008KT 240V300 CAVOK 14/00 Q1016
  • 210300Z 27007KT 230V350 9999 SCT045 14/01 Q1016
  • 210230Z 22005KT 180V310 9999 FEW042 15/01 Q1016
  • 210200Z 16004KT 9999 FEW040 14/02 Q1017
  • 210130Z 31004KT 280V360 9999 FEW038 13/01 Q1017

TAF TAF YMML
Valid from the 21 at 02:00 until the 22 at 06:00 UTC


210202Z 2102/2206 VRB05KT 9999 FEW040
FM210400 24012KT CAVOK
FM211000 33008KT CAVOK
FM212100 30012KT 9999 BKN030
FM220000 27014KT 9999 -SHRA BKN030
YMMM FIR / Oceania



MET'MAP, your aeronautical weather chart ! - Copyright ORBIFLY December 2007 - Disclaimer

ORBIFLY MET'MAP TEAM :

Programming & Development : Alexandra Zaïnal
Concept & original design : Baudouin d'Aumeries
Assistance for programming : Marc-Olivier Méhu
Technical & hardware support : Manuel Goepfert

Contact : metmap@orbifly.com




SOURCES & CREDITS :

   NOAA       Earth
Advisory